Historyczne dane pomiarowe

Dodano dane terminowe – wersja testowa.

Dane z okresu 1951-2019

Wersja bazy: 1.34 [2019-03-16, lista zmian], aktualizacja planowana na 2019-04-15

Dane meteo z obszaru Polski uzyskane na podstawie danych udostępnionych przez Instytut Meteorologii i Gospodarki Wodnej – Państwowy Instytut Badawczy.

 

Wybierz Datę:    

       

TemperaturaWilgotnośćWiatrCiśnienieOpadyŚniegCzas trwania zjawisk
 Stacja t tx tn tng RH VA  wxwx mslp ppp RRR   cm mm wxwxwxwxwxwxwx
1999-08-14 16.8 22.6 10.9 9.2-- 4.0 1.7---- 0.0------------
1999-08-13 15.6 20.7 10.8 10.0-- 6.3 1.3---- 0.0------------
1999-08-12 16.8 20.7 13.4 13.2-- 6.0 1.7---- 0.0------------
1999-08-11 18.4 24.8 13.2 11.7-- 6.3 3.3---- 1.2------------
1999-08-10 19.8 25.4 14.4 13.7-- 7.0 1.3---- 1.6------------
1999-08-09 23.3 30.2 19.5 17.2-- 2.3 1.0---- 2.2------------
1999-08-08 23.1 29.1 17.0 16.0-- 2.0 2.7---- 0.0------------
1999-08-07 20.2 29.0 13.3 9.3-- 5.0 2.0---- 5.0------------
1999-08-06 22.1 28.4 15.5 14.4-- 4.0 2.0---- 0.0------------
1999-08-05 18.3 27.6 8.3 5.2-- 4.0 1.3---- 1.1------------
1999-08-04 17.1 26.6 7.4 6.2-- 4.0 1.0---- 0.0------------
1999-08-03 18.2 24.8 10.2 8.2-- 4.7 0.3---- 0.0------------
1999-08-02 17.4 24.2 9.3 7.4-- 4.3 0.7---- 0.0------------
1999-08-01 19.0 27.2 10.4 8.7-- 3.7 1.7---- 0.0------------
1999-07-31 19.2 27.1 9.8 6.4-- 3.0 2.7---- 0.0------------
1999-07-30 18.1 26.2 8.9 7.2-- 1.7 3.0---- 0.0------------
1999-07-29 18.9 25.4 12.4 9.7-- 1.7 2.7---- 0.0------------
1999-07-28 19.5 25.6 12.1 10.2-- 1.7 3.7---- 0.0------------
1999-07-27 20.1 24.6 16.1 14.7-- 5.3 2.0---- 0.0------------
1999-07-26 20.1 27.6 11.5 10.2-- 3.3 0.7---- 0.0------------
1999-07-25 18.5 26.0 8.7 7.5-- 1.0 1.0---- 0.0------------
1999-07-24 17.6 22.6 13.4 12.7-- 4.0 2.0---- 0.0------------
1999-07-23 16.7 20.7 13.9 14.2-- 7.0 0.0---- 0.0------------
1999-07-22 19.6 24.9 16.2 15.4-- 5.0 1.0---- 0.0------------
1999-07-21 22.7 29.8 14.4 13.7-- 4.3 3.0---- 6.3------------
1999-07-20 22.2 30.4 11.9 10.2-- 1.3 4.0---- 0.0------------
1999-07-19 20.7 29.6 9.8 8.7-- 2.0 0.3---- 0.0------------
1999-07-18 19.1 27.3 8.4 4.8-- 1.0 0.7---- 0.0------------
1999-07-17 18.1 25.0 9.6 8.8-- 1.0 1.3---- 0.0------------
1999-07-16 16.1 22.8 9.2 7.6-- 3.7 2.0---- 0.0------------
1999-07-15 16.8 20.1 12.9 11.7-- 5.7 4.3---- 0.1------------
1999-07-14 21.0 27.9 16.6 16.5-- 6.3 4.7---- 0.9------------
1999-07-13 20.2 27.6 14.6 13.8-- 8.0 4.0---- 0.8------------
1999-07-12 20.9 27.8 13.5 12.7-- 5.0 1.3---- 0.0------------
1999-07-11 20.1 22.2 16.6 16.2-- 6.7 3.7---- 7.4------------
1999-07-10 21.2 25.6 17.5 17.2-- 5.3 5.0---- 0.0------------
1999-07-09 18.3 20.9 14.4 15.4-- 7.3 3.3---- 0.0------------
1999-07-08 16.0 18.2 13.9 15.2-- 8.0 1.7---- 4.5------------
1999-07-07 20.1 24.0 17.5 16.2-- 8.0 1.3---- 7.3------------
1999-07-06 24.2 31.9 17.3 15.2-- 3.7 3.0---- 0.0------------
1999-07-05 24.0 30.8 17.0 15.0-- 0.0 2.7---- 0.0------------
1999-07-04 23.2 30.6 11.9 10.8-- 0.0 1.3---- 0.0------------
1999-07-03 20.8 26.3 13.7 12.6-- 0.7 0.7---- 0.0------------
1999-07-02 19.4 25.3 12.5 11.7-- 5.0 1.3---- 0.0------------
1999-07-01 19.1 24.6 13.3 12.0-- 4.3 2.3---- 1.2------------
1999-06-30 20.1 26.6 12.3 10.8-- 2.7 0.7---- 0.0------------
1999-06-29 19.6 24.4 12.9 10.8-- 3.3 1.0---- 0.0------------
1999-06-28 19.4 27.1 13.5 12.8-- 3.3 0.7---- 8.0------------
1999-06-27 20.0 26.1 12.0 10.0-- 4.3 2.7---- 0.0------------
1999-06-26 17.4 24.1 11.3 9.1-- 2.3 2.3---- 0.0------------
1999-06-25 12.9 19.2 4.9 3.0-- 4.7 1.3---- 1.0------------
1999-06-24 12.1 17.8 3.9 2.2-- 4.0 1.7---- 0.0------------
1999-06-23 11.7 15.0 8.3 7.7-- 7.0 2.7---- 2.6------------
1999-06-22 10.1 13.2 8.5 7.7-- 8.0 10.0---- 16.5------------
1999-06-21 16.5 22.9 12.6 12.8-- 6.7 3.3---- 17.7------------
1999-06-20 17.8 23.1 10.8 8.3-- 4.0 0.7---- 0.0------------
1999-06-19 15.3 19.1 12.4 6.7-- 8.0 3.0---- 1.3------------
1999-06-18 16.4 20.0 13.9 13.8-- 8.0 4.0---- 60.2------------
1999-06-17 18.7 23.2 15.4 14.5-- 8.0 1.0---- 0.7------------
1999-06-16 17.1 19.3 14.9 14.5-- 8.0 1.7---- 0.0------------
520.5 ms

 

Źródłem pochodzenia danych jest Instytut Meteorologii i Gospodarki Wodnej – Państwowy Instytut Badawczy. Dane Instytutu Meteorologii i Gospodarki Wodnej – Państwowego Instytutu Badawczego zostały przetworzone.

Dane źródłowe można odnaleźć na stronie https://dane.imgw.pl